createdAt,value
2022-08-25T00:00:44.643Z,100481.75
2022-08-25T00:01:48.315Z,100473.63
2022-08-25T00:02:56.053Z,100470.72
2022-08-25T00:03:58.846Z,100467.16
2022-08-25T00:05:04.112Z,100472.44
2022-08-25T00:06:06.641Z,100462.44
2022-08-25T00:07:11.056Z,100466.16
2022-08-25T00:08:12.858Z,100462.44
2022-08-25T00:09:18.083Z,100462.44
2022-08-25T00:10:20.473Z,100456.84
2022-08-25T00:11:25.959Z,100458.69
2022-08-25T00:12:27.807Z,100454.44
2022-08-25T00:13:32.407Z,100451.56
2022-08-25T00:14:35.448Z,100449.72
2022-08-25T00:15:41.410Z,100452.25
2022-08-25T00:16:43.625Z,100454.97
2022-08-25T00:17:48.245Z,100444.13
2022-08-25T00:18:54.469Z,100445.13
2022-08-25T00:19:58.856Z,100447.00
2022-08-25T00:21:00.747Z,100444.28
2022-08-25T00:22:05.425Z,100433.25
2022-08-25T00:23:07.222Z,100434.25
2022-08-25T00:24:13.267Z,100439.53
2022-08-25T00:25:15.323Z,100435.28
2022-08-25T00:26:20.050Z,100426.13
2022-08-25T00:27:24.586Z,100429.00
2022-08-25T00:28:26.393Z,100422.56
2022-08-25T00:29:31.395Z,100421.53
2022-08-25T00:30:33.205Z,100422.38
2022-08-25T00:31:38.527Z,100427.81
2022-08-25T00:32:40.863Z,100429.69
2022-08-25T00:33:45.946Z,100427.81
2022-08-25T00:34:47.930Z,100417.81
2022-08-25T00:35:52.366Z,100416.97
2022-08-25T00:36:54.637Z,100416.09
2022-08-25T00:37:59.083Z,100416.97
2022-08-25T00:39:00.907Z,100421.53
2022-08-25T00:40:05.461Z,100430.53
2022-08-25T00:41:07.486Z,100416.97
2022-08-25T00:42:16.037Z,100426.97
2022-08-25T00:43:18.262Z,100427.13
2022-08-25T00:44:23.039Z,100419.00
2022-08-25T00:45:25.024Z,100411.16
2022-08-25T00:46:32.923Z,100427.28
2022-08-25T00:47:34.839Z,100411.84
2022-08-25T00:48:39.453Z,100417.28
2022-08-25T00:49:54.916Z,100421.88
2022-08-25T00:50:56.713Z,100418.28
2022-08-25T00:52:04.383Z,100415.59
2022-08-25T00:53:06.652Z,100407.44
2022-08-25T00:54:11.366Z,100407.44
2022-08-25T00:55:18.108Z,100404.06
2022-08-25T00:56:22.523Z,100408.44
2022-08-25T00:57:34.197Z,100402.19
2022-08-25T00:58:39.413Z,100408.44
2022-08-25T00:59:44.767Z,100399.97
2022-08-25T01:00:48.448Z,100398.28
2022-08-25T01:01:54.091Z,100394.53
2022-08-25T01:02:58.079Z,100387.41
2022-08-25T01:04:02.813Z,100392.16
2022-08-25T01:05:04.796Z,100387.56
2022-08-25T01:06:10.294Z,100380.44
2022-08-25T01:07:17.404Z,100384.00
2022-08-25T01:08:22.810Z,100374.84
2022-08-25T01:09:24.678Z,100377.91
2022-08-25T01:10:29.386Z,100382.31
2022-08-25T01:11:31.198Z,100372.47
2022-08-25T01:12:36.216Z,100372.47
2022-08-25T01:13:40.131Z,100359.56
2022-08-25T01:14:44.761Z,100378.75
2022-08-25T01:15:47.220Z,100370.09
2022-08-25T01:16:53.837Z,100374.50
2022-08-25T01:17:56.495Z,100370.09
2022-08-25T01:19:01.055Z,100370.09
2022-08-25T01:20:03.237Z,100356.88
2022-08-25T01:21:07.690Z,100364.00
2022-08-25T01:22:12.165Z,100360.94
2022-08-25T01:23:16.558Z,100372.50
2022-08-25T01:24:21.479Z,100368.78
2022-08-25T01:25:42.609Z,100371.28
2022-08-25T01:26:44.430Z,100365.00
2022-08-25T01:27:48.898Z,100360.44
2022-08-25T01:29:06.186Z,100357.41
2022-08-25T01:30:10.783Z,100365.69
2022-08-25T01:31:23.968Z,100360.97
2022-08-25T01:32:28.891Z,100358.56
2022-08-25T01:33:30.769Z,100362.97
2022-08-25T01:34:36.027Z,100358.25
2022-08-25T01:35:38.258Z,100364.69
2022-08-25T01:36:43.380Z,100349.78
2022-08-25T01:37:45.411Z,100361.31
2022-08-25T01:38:49.794Z,100357.41
2022-08-25T01:39:54.617Z,100354.88
2022-08-25T01:40:56.472Z,100352.81
2022-08-25T01:42:02.566Z,100357.41
2022-08-25T01:43:07.380Z,100355.19
2022-08-25T01:44:16.089Z,100364.03
2022-08-25T01:45:19.056Z,100353.00
2022-08-25T01:46:23.588Z,100359.13
2022-08-25T01:47:25.525Z,100353.84
2022-08-25T01:48:30.094Z,100359.28
2022-08-25T01:49:32.643Z,100357.25
2022-08-25T01:50:37.602Z,100359.97
2022-08-25T01:51:45.122Z,100364.38
2022-08-25T01:52:58.305Z,100349.78
2022-08-25T01:54:00.160Z,100358.59
2022-08-25T01:55:04.671Z,100346.72
2022-08-25T01:56:11.584Z,100354.88
2022-08-25T01:57:16.176Z,100356.56
2022-08-25T01:58:18.977Z,100354.53
2022-08-25T01:59:23.895Z,100353.16
2022-08-25T02:00:26.245Z,100357.25
2022-08-25T02:01:30.775Z,100356.25
2022-08-25T02:02:33.025Z,100356.25
2022-08-25T02:03:42.233Z,100354.53
2022-08-25T02:04:44.700Z,100359.13
2022-08-25T02:05:49.219Z,100354.22
2022-08-25T02:06:51.138Z,100366.59
2022-08-25T02:07:55.599Z,100366.41
2022-08-25T02:08:59.049Z,100362.69
2022-08-25T02:10:04.330Z,100364.38
2022-08-25T02:11:06.518Z,100364.38
2022-08-25T02:12:12.310Z,100367.25
2022-08-25T02:13:14.311Z,100367.94
2022-08-25T02:14:19.959Z,100352.81
2022-08-25T02:15:21.942Z,100353.50
2022-08-25T02:16:28.470Z,100354.53
2022-08-25T02:17:30.342Z,100354.38
2022-08-25T02:18:34.955Z,100360.97
2022-08-25T02:19:36.751Z,100353.50
2022-08-25T02:20:41.760Z,100357.25
2022-08-25T02:21:44.012Z,100348.94
2022-08-25T02:22:53.041Z,100347.41
2022-08-25T02:23:58.939Z,100354.53
2022-08-25T02:25:05.826Z,100358.25
2022-08-25T02:26:08.079Z,100355.53
2022-08-25T02:27:12.537Z,100354.69
2022-08-25T02:28:14.456Z,100355.53
2022-08-25T02:29:19.458Z,100350.13
2022-08-25T02:30:21.670Z,100352.19
2022-08-25T02:31:26.761Z,100353.03
2022-08-25T02:32:28.561Z,100356.59
2022-08-25T02:33:32.962Z,100359.31
2022-08-25T02:34:35.522Z,100360.97
2022-08-25T02:35:40.025Z,100353.69
2022-08-25T02:36:42.397Z,100363.03
2022-08-25T02:37:47.426Z,100353.03
2022-08-25T02:38:49.688Z,100358.25
2022-08-25T02:39:54.219Z,100348.44
2022-08-25T02:40:59.371Z,100351.97
2022-08-25T02:42:03.747Z,100350.13
2022-08-25T02:43:06.018Z,100363.88
2022-08-25T02:44:11.091Z,100357.59
2022-08-25T02:45:12.945Z,100348.44
2022-08-25T02:46:17.738Z,100351.81
2022-08-25T02:47:20.042Z,100348.09
2022-08-25T02:48:31.514Z,100349.94
2022-08-25T02:49:33.355Z,100359.78
2022-08-25T02:50:37.782Z,100349.78
2022-08-25T02:51:39.672Z,100350.78
2022-08-25T02:52:44.323Z,100348.94
2022-08-25T02:53:47.160Z,100339.94
2022-08-25T02:54:51.593Z,100348.09
2022-08-25T02:55:53.614Z,100349.09
2022-08-25T02:56:58.001Z,100344.34
2022-08-25T02:57:59.869Z,100343.66
2022-08-25T02:59:04.718Z,100345.53
2022-08-25T03:00:06.923Z,100350.13
2022-08-25T03:01:12.133Z,100341.31
2022-08-25T03:02:14.505Z,100345.88
2022-08-25T03:03:19.355Z,100351.50
2022-08-25T03:04:21.179Z,100341.63
2022-08-25T03:05:25.709Z,100345.22
2022-08-25T03:06:28.131Z,100341.63
2022-08-25T03:07:35.433Z,100347.06
2022-08-25T03:08:37.480Z,100337.06
2022-08-25T03:09:42.180Z,100343.34
2022-08-25T03:10:43.970Z,100341.63
2022-08-25T03:11:48.442Z,100346.38
2022-08-25T03:12:50.299Z,100334.50
2022-08-25T03:13:54.761Z,100343.34
2022-08-25T03:14:56.562Z,100342.50
2022-08-25T03:16:03.047Z,100330.94
2022-08-25T03:17:05.395Z,100339.94
2022-08-25T03:18:14.280Z,100330.09
2022-08-25T03:19:16.810Z,100325.69
2022-08-25T03:20:21.406Z,100323.63
2022-08-25T03:21:23.224Z,100329.94
2022-08-25T03:22:27.881Z,100329.06
2022-08-25T03:23:30.295Z,100330.78
2022-08-25T03:24:34.688Z,100334.50
2022-08-25T03:25:51.531Z,100328.91
2022-08-25T03:26:56.333Z,100330.78
2022-08-25T03:27:58.318Z,100333.31
2022-08-25T03:29:05.228Z,100330.44
2022-08-25T03:30:07.392Z,100338.59
2022-08-25T03:31:11.936Z,100334.88
2022-08-25T03:32:14.156Z,100339.25
2022-08-25T03:33:18.689Z,100334.19
2022-08-25T03:34:21.272Z,100329.22
2022-08-25T03:35:25.964Z,100329.44
2022-08-25T03:36:30.491Z,100334.66
2022-08-25T03:37:32.338Z,100335.69
2022-08-25T03:38:38.397Z,100339.25
2022-08-25T03:39:40.392Z,100340.28
2022-08-25T03:40:44.915Z,100340.28
2022-08-25T03:41:50.107Z,100327.38
2022-08-25T03:42:52.002Z,100329.06
2022-08-25T03:43:56.591Z,100338.91
2022-08-25T03:44:58.397Z,100340.63
2022-08-25T03:46:02.844Z,100337.91
2022-08-25T03:47:07.434Z,100342.31
2022-08-25T03:48:09.405Z,100334.16
2022-08-25T03:49:15.514Z,100339.44
2022-08-25T03:50:17.792Z,100340.28
2022-08-25T03:51:23.279Z,100337.41
2022-08-25T03:52:25.173Z,100330.09
2022-08-25T03:53:29.650Z,100342.31
2022-08-25T03:54:31.447Z,100339.59
2022-08-25T03:55:35.916Z,100337.56
2022-08-25T03:56:38.396Z,100334.84
2022-08-25T03:57:42.974Z,100337.38
2022-08-25T03:58:44.866Z,100343.66
2022-08-25T03:59:49.375Z,100334.66
2022-08-25T04:00:51.334Z,100331.09
2022-08-25T04:01:55.893Z,100341.97
2022-08-25T04:02:57.807Z,100336.53
2022-08-25T04:04:02.230Z,100333.81
2022-08-25T04:05:04.340Z,100342.13
2022-08-25T04:06:09.029Z,100351.13
2022-08-25T04:07:10.840Z,100340.94
2022-08-25T04:08:15.329Z,100346.38
2022-08-25T04:09:17.126Z,100342.66
2022-08-25T04:10:21.554Z,100338.91
2022-08-25T04:11:23.504Z,100351.47
2022-08-25T04:12:28.061Z,100338.59
2022-08-25T04:13:30.223Z,100341.97
2022-08-25T04:14:34.594Z,100344.38
2022-08-25T04:15:36.496Z,100355.06
2022-08-25T04:16:41.051Z,100344.03
2022-08-25T04:17:42.963Z,100357.44
2022-08-25T04:18:47.736Z,100343.53
2022-08-25T04:19:50.213Z,100346.03
2022-08-25T04:20:54.594Z,100344.84
2022-08-25T04:21:56.751Z,100352.84
2022-08-25T04:23:02.889Z,100354.53
2022-08-25T04:24:05.008Z,100348.78
2022-08-25T04:25:09.902Z,100353.03
2022-08-25T04:26:16.958Z,100370.84
2022-08-25T04:27:21.347Z,100358.09
2022-08-25T04:28:23.143Z,100362.34
2022-08-25T04:29:27.930Z,100369.13
2022-08-25T04:30:29.731Z,100369.81
2022-08-25T04:31:34.315Z,100366.72
2022-08-25T04:32:36.764Z,100370.13
2022-08-25T04:33:41.775Z,100369.97
2022-08-25T04:34:43.620Z,100373.19
2022-08-25T04:35:51.734Z,100373.50
2022-08-25T04:36:53.577Z,100386.75
2022-08-25T04:37:57.969Z,100387.25
2022-08-25T04:38:59.785Z,100393.19
2022-08-25T04:40:04.993Z,100392.16
2022-08-25T04:41:07.342Z,100389.28
2022-08-25T04:42:11.733Z,100389.78
2022-08-25T04:43:13.591Z,100395.91
2022-08-25T04:44:18.034Z,100392.84
2022-08-25T04:45:19.938Z,100409.81
2022-08-25T04:46:25.649Z,100396.88
2022-08-25T04:47:30.280Z,100405.59
2022-08-25T04:48:32.822Z,100401.69
2022-08-25T04:49:37.374Z,100408.63
2022-08-25T04:50:39.840Z,100400.09
2022-08-25T04:51:44.616Z,100403.00
2022-08-25T04:52:46.619Z,100415.25
2022-08-25T04:53:51.083Z,100400.28
2022-08-25T04:54:52.947Z,100397.91
2022-08-25T04:56:01.823Z,100411.16
2022-08-25T04:57:08.123Z,100390.72
2022-08-25T04:58:14.713Z,100409.06
2022-08-25T04:59:21.406Z,100402.25
2022-08-25T05:00:23.220Z,100409.03
2022-08-25T05:01:28.249Z,100416.34
2022-08-25T05:02:30.071Z,100430.47
2022-08-25T05:03:35.110Z,100420.41
2022-08-25T05:04:39.663Z,100414.47
2022-08-25T05:05:41.537Z,100431.44
2022-08-25T05:06:46.738Z,100436.53
2022-08-25T05:07:51.207Z,100436.69
2022-08-25T05:08:53.241Z,100440.91
2022-08-25T05:09:58.132Z,100447.03
2022-08-25T05:11:00.578Z,100451.09
2022-08-25T05:12:08.729Z,100450.94
2022-08-25T05:13:13.194Z,100450.38
2022-08-25T05:14:21.696Z,100457.16
2022-08-25T05:15:42.630Z,100453.56
2022-08-25T05:16:47.228Z,100460.47
2022-08-25T05:17:51.639Z,100468.28
2022-08-25T05:18:59.778Z,100477.31
2022-08-25T05:20:01.553Z,100483.03
2022-08-25T05:21:07.123Z,100481.59
2022-08-25T05:22:11.589Z,100498.22
2022-08-25T05:23:13.417Z,100494.19
2022-08-25T05:24:18.712Z,100505.38
2022-08-25T05:25:23.206Z,100508.88
2022-08-25T05:26:26.041Z,100514.94
2022-08-25T05:27:30.494Z,100523.06
2022-08-25T05:28:32.352Z,100539.19
2022-08-25T05:29:36.848Z,100543.88
2022-08-25T05:30:39.573Z,100547.41
2022-08-25T05:31:49.559Z,100552.63
2022-08-25T05:32:52.123Z,100567.50
2022-08-25T05:33:56.915Z,100573.66
2022-08-25T05:34:59.440Z,100572.16
2022-08-25T05:36:04.023Z,100585.25
2022-08-25T05:37:12.085Z,100596.94
2022-08-25T05:38:15.283Z,100594.09
2022-08-25T05:39:20.185Z,100608.44
2022-08-25T05:40:22.015Z,100609.78
2022-08-25T05:41:29.036Z,100604.13
2022-08-25T05:42:30.906Z,100601.88
2022-08-25T05:43:35.659Z,100615.31
2022-08-25T05:44:37.544Z,100624.47
2022-08-25T05:45:42.106Z,100617.50
2022-08-25T05:46:43.906Z,100614.31
2022-08-25T05:47:48.854Z,100620.59
2022-08-25T05:48:50.676Z,100614.03
2022-08-25T05:49:55.090Z,100627.31
2022-08-25T05:50:59.932Z,100636.75
2022-08-25T05:52:04.359Z,100628.25
2022-08-25T05:53:06.886Z,100647.69
2022-08-25T05:54:11.299Z,100629.66
2022-08-25T05:55:13.192Z,100632.13
2022-08-25T05:56:17.814Z,100626.09
2022-08-25T05:57:19.633Z,100637.88
2022-08-25T05:58:24.396Z,100640.88
2022-08-25T05:59:28.791Z,100644.75
2022-08-25T06:00:30.609Z,100637.22
2022-08-25T06:01:47.488Z,100633.44
2022-08-25T06:02:51.926Z,100639.66
2022-08-25T06:03:54.422Z,100642.38
2022-08-25T06:04:59.057Z,100648.22
2022-08-25T06:06:07.378Z,100645.59
2022-08-25T06:07:12.177Z,100638.25
2022-08-25T06:08:14.180Z,100645.88
2022-08-25T06:09:19.514Z,100647.38
2022-08-25T06:10:24.641Z,100630.59
2022-08-25T06:11:27.454Z,100636.38
2022-08-25T06:12:32.922Z,100655.22
2022-08-25T06:13:35.136Z,100647.69
2022-08-25T06:14:39.834Z,100634.28
2022-08-25T06:15:44.290Z,100642.28
2022-08-25T06:16:49.017Z,100649.38
2022-08-25T06:17:56.695Z,100653.16
2022-08-25T06:19:01.323Z,100651.63
2022-08-25T06:20:06.907Z,100654.63
2022-08-25T06:21:12.914Z,100659.53
2022-08-25T06:22:17.379Z,100654.13
2022-08-25T06:23:21.936Z,100649.81
2022-08-25T06:24:29.716Z,100654.97
2022-08-25T06:25:33.639Z,100655.94
2022-08-25T06:26:38.038Z,100662.72
2022-08-25T06:27:40.050Z,100672.72
2022-08-25T06:28:44.455Z,100675.13
2022-08-25T06:29:46.326Z,100680.28
2022-08-25T06:30:50.709Z,100676.66
2022-08-25T06:31:52.662Z,100671.88
2022-08-25T06:32:57.108Z,100685.50
2022-08-25T06:33:59.028Z,100687.06
2022-08-25T06:35:03.434Z,100700.59
2022-08-25T06:36:05.385Z,100703.63
2022-08-25T06:37:09.803Z,100696.75
2022-08-25T06:38:11.743Z,100700.84
2022-08-25T06:39:16.167Z,100704.94
2022-08-25T06:40:18.078Z,100709.41
2022-08-25T06:41:23.004Z,100712.03
2022-08-25T06:42:24.854Z,100716.72
2022-08-25T06:43:29.756Z,100711.09
2022-08-25T06:44:31.623Z,100725.28
2022-08-25T06:45:36.440Z,100724.47
2022-08-25T06:46:39.107Z,100722.41
2022-08-25T06:47:45.446Z,100737.22
2022-08-25T06:48:50.280Z,100737.47
2022-08-25T06:49:52.206Z,100732.50
2022-08-25T06:50:56.574Z,100731.91
2022-08-25T06:52:01.053Z,100736.56
2022-08-25T06:53:03.531Z,100747.41
2022-08-25T06:54:10.033Z,100735.13
2022-08-25T06:55:14.642Z,100734.31
2022-08-25T06:56:17.127Z,100743.00
2022-08-25T06:57:21.782Z,100741.72
2022-08-25T06:58:23.740Z,100751.25
2022-08-25T06:59:31.936Z,100751.06
2022-08-25T07:00:34.445Z,100743.91
2022-08-25T07:01:39.026Z,100751.13
2022-08-25T07:02:41.415Z,100754.09
2022-08-25T07:03:46.097Z,100755.38
2022-08-25T07:04:49.667Z,100756.25
2022-08-25T07:05:57.430Z,100762.38
2022-08-25T07:06:59.254Z,100761.31
2022-08-25T07:08:06.799Z,100759.22
2022-08-25T07:09:08.994Z,100765.59
2022-08-25T07:10:13.538Z,100760.09
2022-08-25T07:11:16.062Z,100766.44
2022-08-25T07:12:21.130Z,100761.78
2022-08-25T07:13:23.010Z,100761.84
2022-08-25T07:14:27.569Z,100777.06
2022-08-25T07:15:29.535Z,100773.91
2022-08-25T07:16:34.342Z,100775.41
2022-08-25T07:17:36.201Z,100778.34
2022-08-25T07:18:40.625Z,100785.75
2022-08-25T07:19:42.641Z,100789.34
2022-08-25T07:20:47.049Z,100784.06
2022-08-25T07:21:50.139Z,100784.88
2022-08-25T07:22:55.503Z,100787.63
2022-08-25T07:24:00.241Z,100798.88
2022-08-25T07:25:04.713Z,100788.09
2022-08-25T07:26:36.415Z,100793.16
2022-08-25T07:27:38.609Z,100796.06
2022-08-25T07:30:08.712Z,100798.63
2022-08-25T07:31:13.444Z,100810.69
2022-08-25T07:32:18.012Z,100797.75
2022-08-25T07:33:19.813Z,100799.19
2022-08-25T07:34:36.697Z,100798.13
2022-08-25T07:35:43.813Z,100801.25
2022-08-25T07:36:45.797Z,100805.66
2022-08-25T07:37:51.783Z,100801.34
2022-08-25T07:38:58.589Z,100804.25
2022-08-25T07:40:02.825Z,100800.66
2022-08-25T07:41:09.274Z,100802.72
2022-08-25T07:42:12.656Z,100815.34
2022-08-25T07:43:17.290Z,100807.88
2022-08-25T07:44:19.232Z,100809.06
2022-08-25T07:45:29.719Z,100815.59
2022-08-25T07:46:32.133Z,100823.88
2022-08-25T07:47:38.707Z,100814.97
2022-08-25T07:48:41.210Z,100819.63
2022-08-25T07:49:45.820Z,100815.97
2022-08-25T07:50:48.566Z,100817.84
2022-08-25T07:52:05.318Z,100806.97
2022-08-25T07:53:11.327Z,100818.19
2022-08-25T07:54:15.081Z,100813.94
2022-08-25T07:55:19.503Z,100823.75
2022-08-25T07:56:23.871Z,100819.13
2022-08-25T07:57:29.662Z,100823.41
2022-08-25T07:58:34.065Z,100828.53
2022-08-25T07:59:43.111Z,100824.69
2022-08-25T08:00:47.968Z,100820.50
2022-08-25T08:01:52.506Z,100822.38
2022-08-25T08:02:54.419Z,100821.41
2022-08-25T08:04:03.456Z,100819.72
2022-08-25T08:05:06.144Z,100823.31
2022-08-25T08:06:15.774Z,100818.00
2022-08-25T08:07:18.746Z,100816.31
2022-08-25T08:08:23.250Z,100826.50
2022-08-25T08:09:25.694Z,100826.31
2022-08-25T08:10:48.149Z,100816.81
2022-08-25T08:11:54.858Z,100820.66
2022-08-25T08:12:56.726Z,100821.97
2022-08-25T08:14:01.334Z,100813.69
2022-08-25T08:15:03.605Z,100812.25
2022-08-25T08:16:16.069Z,100808.41
2022-08-25T08:17:18.084Z,100807.94
2022-08-25T08:18:22.520Z,100818.53
2022-08-25T08:19:24.363Z,100808.13
2022-08-25T08:20:29.169Z,100819.97
2022-08-25T08:21:37.625Z,100814.28
2022-08-25T08:22:42.919Z,100813.69
2022-08-25T08:23:44.791Z,100809.28
2022-08-25T08:24:54.732Z,100822.06
2022-08-25T08:26:00.836Z,100806.84
2022-08-25T08:27:02.888Z,100817.88
2022-08-25T08:28:07.619Z,100812.00
2022-08-25T08:29:13.114Z,100803.53
2022-08-25T08:30:17.903Z,100812.44
2022-08-25T08:31:21.256Z,100805.28
2022-08-25T08:32:32.431Z,100802.78
2022-08-25T08:33:51.234Z,100799.19
2022-08-25T08:34:53.332Z,100795.38
2022-08-25T08:36:04.842Z,100805.31
2022-08-25T08:37:07.636Z,100802.81
2022-08-25T08:38:21.164Z,100808.56
2022-08-25T08:39:32.773Z,100806.25
2022-08-25T08:40:36.484Z,100808.16
2022-08-25T08:42:16.945Z,100808.81
2022-08-25T08:43:21.516Z,100809.03
2022-08-25T08:44:26.958Z,100805.84
2022-08-25T08:45:35.413Z,100803.31
2022-08-25T08:47:04.751Z,100804.16
2022-08-25T08:48:33.095Z,100797.59
2022-08-25T08:49:51.495Z,100792.72
2022-08-25T08:51:15.148Z,100796.53
2022-08-25T08:52:20.467Z,100790.63
2022-08-25T08:53:26.073Z,100796.31
2022-08-25T08:54:34.169Z,100791.44
2022-08-25T08:55:40.525Z,100793.56
2022-08-25T08:56:48.357Z,100794.00
2022-08-25T08:57:51.196Z,100792.72
2022-08-25T08:59:00.600Z,100788.06
2022-08-25T09:00:06.212Z,100786.41
2022-08-25T09:01:10.955Z,100791.91
2022-08-25T09:02:37.885Z,100773.88
2022-08-25T09:03:45.608Z,100784.28
2022-08-25T09:05:01.145Z,100769.25
2022-08-25T09:06:07.017Z,100778.13
2022-08-25T09:07:12.405Z,100780.44
2022-08-25T09:08:20.393Z,100779.34
2022-08-25T09:09:26.505Z,100774.28
2022-08-25T09:10:32.153Z,100775.97
2022-08-25T09:11:43.651Z,100770.66
2022-08-25T09:12:49.716Z,100765.16
2022-08-25T09:13:55.547Z,100774.47
2022-08-25T09:15:12.790Z,100776.16
2022-08-25T09:16:34.404Z,100772.56
2022-08-25T09:17:57.960Z,100767.91
2022-08-25T09:19:11.935Z,100771.28
2022-08-25T09:20:47.764Z,100766.66
2022-08-25T09:21:55.215Z,100765.19
2022-08-25T09:23:01.194Z,100766.88
2022-08-25T09:24:11.622Z,100770.47
2022-08-25T09:25:29.482Z,100770.25
2022-08-25T09:26:56.081Z,100777.50
2022-08-25T09:28:10.983Z,100780.03
2022-08-25T09:29:22.455Z,100786.81
2022-08-25T09:30:27.223Z,100777.69
2022-08-25T09:31:41.461Z,100772.41
2022-08-25T09:32:52.198Z,100774.09
2022-08-25T09:33:58.384Z,100772.00
2022-08-25T09:35:00.209Z,100779.38
2022-08-25T09:36:06.338Z,100772.41
2022-08-25T09:37:13.096Z,100766.91
2022-08-25T09:38:14.912Z,100775.59
2022-08-25T09:39:19.761Z,100777.06
2022-08-25T09:40:22.432Z,100775.97
2022-08-25T09:41:57.748Z,100766.84
2022-08-25T09:43:02.674Z,100775.31
2022-08-25T09:44:07.919Z,100774.09
2022-08-25T09:45:12.551Z,100774.28
2022-08-25T09:46:20.821Z,100770.22
2022-08-25T09:47:22.897Z,100769.38
2022-08-25T09:48:30.338Z,100774.91
2022-08-25T09:50:01.238Z,100771.50
2022-08-25T09:51:23.013Z,100773.19
2022-08-25T09:52:35.598Z,100770.22
2022-08-25T09:53:51.614Z,100772.34
2022-08-25T09:54:55.221Z,100761.75
2022-08-25T09:56:04.973Z,100760.91
2022-08-25T09:57:08.786Z,100760.06
2022-08-25T09:58:19.989Z,100759.59
2022-08-25T09:59:35.238Z,100763.88
2022-08-25T10:00:40.205Z,100763.41
2022-08-25T10:01:52.903Z,100754.53
2022-08-25T10:03:15.445Z,100758.34
2022-08-25T10:04:28.669Z,100756.44
2022-08-25T10:05:35.265Z,100752.63
2022-08-25T10:06:45.949Z,100755.41
2022-08-25T10:07:52.175Z,100746.47
2022-08-25T10:08:59.086Z,100754.56
2022-08-25T10:10:01.818Z,100753.94
2022-08-25T10:11:09.057Z,100745.66
2022-08-25T10:12:18.355Z,100755.03
2022-08-25T10:13:34.762Z,100748.59
2022-08-25T10:14:44.505Z,100740.53
2022-08-25T10:15:46.783Z,100734.75
2022-08-25T10:16:54.688Z,100741.53
2022-08-25T10:17:56.976Z,100736.22
2022-08-25T10:19:04.592Z,100737.94
2022-08-25T10:20:15.387Z,100734.94
2022-08-25T10:21:17.599Z,100731.09
2022-08-25T10:22:32.435Z,100734.91
2022-08-25T10:23:34.587Z,100727.09
2022-08-25T10:24:39.106Z,100734.25
2022-08-25T10:25:59.164Z,100736.13
2022-08-25T10:27:09.116Z,100741.19
2022-08-25T10:28:14.033Z,100738.22
2022-08-25T10:29:18.419Z,100732.00
2022-08-25T10:30:23.082Z,100741.16
2022-08-25T10:31:27.140Z,100741.63
2022-08-25T10:32:34.595Z,100731.00
2022-08-25T10:33:50.388Z,100739.78
2022-08-25T10:34:56.216Z,100738.94
2022-08-25T10:36:02.464Z,100729.75
2022-08-25T10:37:09.201Z,100729.59
2022-08-25T10:38:13.779Z,100729.50
2022-08-25T10:39:36.239Z,100735.34
2022-08-25T10:40:38.634Z,100732.31
2022-08-25T10:41:53.330Z,100735.69
2022-08-25T10:43:08.056Z,100729.25
2022-08-25T10:44:37.342Z,100727.94
2022-08-25T10:45:48.545Z,100732.78
2022-08-25T10:46:54.126Z,100727.44
2022-08-25T10:48:17.749Z,100727.84
2022-08-25T10:49:23.494Z,100718.00
2022-08-25T10:50:30.435Z,100718.84
2022-08-25T10:51:41.901Z,100722.69
2022-08-25T10:53:18.938Z,100720.09
2022-08-25T10:54:26.458Z,100720.50
2022-08-25T10:55:31.064Z,100712.97
2022-08-25T10:56:44.139Z,100710.13
2022-08-25T10:57:46.454Z,100712.19
2022-08-25T10:59:20.200Z,100705.78
2022-08-25T11:00:23.226Z,100711.63
2022-08-25T11:01:53.551Z,100708.78
2022-08-25T11:02:55.751Z,100718.19
2022-08-25T11:04:05.048Z,100710.06
2022-08-25T11:05:13.141Z,100714.44
2022-08-25T11:06:20.649Z,100708.22
2022-08-25T11:07:22.418Z,100705.34
2022-08-25T11:08:31.407Z,100699.50
2022-08-25T11:09:43.165Z,100697.44
2022-08-25T11:10:48.043Z,100694.44
2022-08-25T11:11:55.480Z,100689.91
2022-08-25T11:13:00.987Z,100691.44
2022-08-25T11:14:11.134Z,100690.75
2022-08-25T11:15:19.138Z,100695.59
2022-08-25T11:16:25.516Z,100696.59
2022-08-25T11:17:44.618Z,100684.81
2022-08-25T11:19:09.372Z,100685.19
2022-08-25T11:20:19.946Z,100687.81
2022-08-25T11:21:36.178Z,100688.44
2022-08-25T11:22:45.950Z,100684.94
2022-08-25T11:23:56.573Z,100680.59
2022-08-25T11:25:00.638Z,100687.38
2022-08-25T11:26:06.792Z,100687.13
2022-08-25T11:27:10.349Z,100687.50
2022-08-25T11:28:27.278Z,100690.38
2022-08-25T11:29:33.775Z,100679.94
2022-08-25T11:30:38.256Z,100683.06
2022-08-25T11:31:52.241Z,100676.81
2022-08-25T11:32:57.759Z,100684.66
2022-08-25T11:34:01.883Z,100671.44
2022-08-25T11:35:09.111Z,100676.50
2022-08-25T11:36:29.418Z,100684.34
2022-08-25T11:37:34.498Z,100679.03
2022-08-25T11:38:40.203Z,100681.56
2022-08-25T11:39:51.882Z,100679.13
2022-08-25T11:41:11.439Z,100681.91
2022-08-25T11:42:16.548Z,100678.28
2022-08-25T11:43:40.581Z,100675.28
2022-08-25T11:44:53.370Z,100679.50
2022-08-25T11:46:27.637Z,100682.16
2022-08-25T11:47:29.736Z,100677.47
2022-08-25T11:48:34.179Z,100676.75
2022-08-25T11:49:39.265Z,100674.22
2022-08-25T11:51:00.907Z,100666.53
2022-08-25T11:52:06.791Z,100666.28
2022-08-25T11:53:11.507Z,100673.00
2022-08-25T11:54:16.022Z,100674.84
2022-08-25T11:55:39.286Z,100673.16
2022-08-25T11:56:41.825Z,100674.69
2022-08-25T11:57:50.489Z,100673.84
2022-08-25T11:58:57.929Z,100674.34
2022-08-25T12:00:07.350Z,100685.19
2022-08-25T12:01:13.170Z,100674.47
2022-08-25T12:02:36.449Z,100669.16
2022-08-25T12:03:38.580Z,100679.16
2022-08-25T12:04:45.795Z,100675.31
2022-08-25T12:05:51.767Z,100667.25
2022-08-25T12:07:08.897Z,100677.47
2022-08-25T12:08:27.937Z,100670.25
2022-08-25T12:09:32.343Z,100667.97
2022-08-25T12:10:53.567Z,100671.59
2022-08-25T12:11:58.573Z,100669.66
2022-08-25T12:13:24.545Z,100670.13
2022-08-25T12:14:28.986Z,100672.91
2022-08-25T12:16:02.947Z,100672.06
2022-08-25T12:17:06.694Z,100669.53
2022-08-25T12:18:21.945Z,100660.16
2022-08-25T12:19:38.433Z,100669.66
2022-08-25T12:20:58.208Z,100670.38
2022-08-25T12:22:03.246Z,100673.53
2022-08-25T12:23:08.305Z,100670.00
2022-08-25T12:24:11.479Z,100675.06
2022-08-25T12:25:33.965Z,100670.38
2022-08-25T12:26:42.275Z,100664.72
2022-08-25T12:28:09.883Z,100670.38
2022-08-25T12:29:14.959Z,100667.16
2022-08-25T12:30:20.686Z,100668.84
2022-08-25T12:31:33.314Z,100656.06
2022-08-25T12:32:50.061Z,100663.16
2022-08-25T12:33:59.466Z,100651.84
2022-08-25T12:35:13.816Z,100657.84
2022-08-25T12:36:33.414Z,100656.91
2022-08-25T12:37:35.550Z,100659.53
2022-08-25T12:38:51.773Z,100657.38
2022-08-25T12:40:00.571Z,100648.84